Terminal Aerodrome Forecast
Issued by NWS Blacksburg, VA

Current Version | Previous Version | Text Only | Print | Product List | Glossary On
Versions: 1 2 3 4 5 6 7 8 9 10 11 12 13 14 15 16 17 18 19 20 21 22 23 24 25
000
FTUS41 KRNK 032333
TAFROA
TAF
KROA 032333Z 0400/0424 36006KT P6SM FEW100 FEW250
     FM040300 34003KT P6SM SCT060 BKN100
     FM041800 04005KT P6SM VCTS BKN050CB
     FM042200 04005KT P6SM VCSH BKN050=

USA.gov is the U.S. government's official web portal to all federal, state and local government web resources and services.